sensor_id;sensor_type;location;lat;lon;timestamp;P1;durP1;ratioP1;P2;durP2;ratioP2
9222;SDS011;7557;51.698;3.942;2022-12-24T00:02:13;33.90;;;8.67;;
9222;SDS011;7557;51.698;3.942;2022-12-24T00:04:40;30.50;;;7.20;;
9222;SDS011;7557;51.698;3.942;2022-12-24T00:07:07;31.53;;;7.37;;
9222;SDS011;7557;51.698;3.942;2022-12-24T00:09:35;33.43;;;6.53;;
9222;SDS011;7557;51.698;3.942;2022-12-24T00:12:02;25.00;;;5.93;;
9222;SDS011;7557;51.698;3.942;2022-12-24T00:14:30;32.80;;;7.13;;
9222;SDS011;7557;51.698;3.942;2022-12-24T00:16:58;25.53;;;5.83;;
9222;SDS011;7557;51.698;3.942;2022-12-24T00:19:27;35.27;;;9.57;;
9222;SDS011;7557;51.698;3.942;2022-12-24T00:21:54;36.03;;;7.17;;
9222;SDS011;7557;51.698;3.942;2022-12-24T00:24:22;31.07;;;6.67;;
9222;SDS011;7557;51.698;3.942;2022-12-24T00:26:49;31.70;;;7.43;;
9222;SDS011;7557;51.698;3.942;2022-12-24T00:29:16;32.97;;;7.10;;
9222;SDS011;7557;51.698;3.942;2022-12-24T00:31:44;29.33;;;7.87;;
9222;SDS011;7557;51.698;3.942;2022-12-24T00:34:11;31.83;;;8.23;;
9222;SDS011;7557;51.698;3.942;2022-12-24T00:36:41;35.80;;;8.00;;
9222;SDS011;7557;51.698;3.942;2022-12-24T00:39:08;33.80;;;7.60;;
9222;SDS011;7557;51.698;3.942;2022-12-24T00:41:35;39.80;;;8.20;;
9222;SDS011;7557;51.698;3.942;2022-12-24T00:44:03;36.73;;;8.47;;
9222;SDS011;7557;51.698;3.942;2022-12-24T00:46:34;41.03;;;8.27;;
9222;SDS011;7557;51.698;3.942;2022-12-24T00:49:04;33.97;;;9.17;;
9222;SDS011;7557;51.698;3.942;2022-12-24T00:51:32;40.97;;;8.67;;
9222;SDS011;7557;51.698;3.942;2022-12-24T00:54:03;38.27;;;8.50;;
9222;SDS011;7557;51.698;3.942;2022-12-24T00:56:31;38.10;;;7.07;;
9222;SDS011;7557;51.698;3.942;2022-12-24T00:58:59;47.27;;;7.83;;
9222;SDS011;7557;51.698;3.942;2022-12-24T01:01:26;38.53;;;7.83;;
9222;SDS011;7557;51.698;3.942;2022-12-24T01:03:54;51.23;;;8.87;;
9222;SDS011;7557;51.698;3.942;2022-12-24T01:06:42;40.07;;;8.80;;
9222;SDS011;7557;51.698;3.942;2022-12-24T01:09:10;42.83;;;9.77;;
9222;SDS011;7557;51.698;3.942;2022-12-24T01:11:38;45.40;;;8.93;;
9222;SDS011;7557;51.698;3.942;2022-12-24T01:14:06;53.33;;;10.63;;
9222;SDS011;7557;51.698;3.942;2022-12-24T01:16:33;50.80;;;9.93;;
9222;SDS011;7557;51.698;3.942;2022-12-24T01:19:00;57.70;;;11.43;;
9222;SDS011;7557;51.698;3.942;2022-12-24T01:21:28;54.60;;;12.33;;
9222;SDS011;7557;51.698;3.942;2022-12-24T01:23:56;48.83;;;9.10;;
9222;SDS011;7557;51.698;3.942;2022-12-24T01:26:25;42.47;;;9.10;;
9222;SDS011;7557;51.698;3.942;2022-12-24T01:28:52;53.37;;;11.17;;
9222;SDS011;7557;51.698;3.942;2022-12-24T01:31:21;48.43;;;10.40;;
9222;SDS011;7557;51.698;3.942;2022-12-24T01:33:49;49.97;;;9.87;;
9222;SDS011;7557;51.698;3.942;2022-12-24T01:36:16;49.63;;;10.70;;
9222;SDS011;7557;51.698;3.942;2022-12-24T01:38:44;48.63;;;9.20;;
9222;SDS011;7557;51.698;3.942;2022-12-24T01:41:13;46.60;;;9.90;;
9222;SDS011;7557;51.698;3.942;2022-12-24T01:46:51;54.63;;;10.90;;
9222;SDS011;7557;51.698;3.942;2022-12-24T01:49:20;52.60;;;10.60;;
9222;SDS011;7557;51.698;3.942;2022-12-24T01:51:49;53.43;;;9.77;;
9222;SDS011;7557;51.698;3.942;2022-12-24T01:54:21;58.97;;;9.70;;
9222;SDS011;7557;51.698;3.942;2022-12-24T01:56:55;48.03;;;9.83;;
9222;SDS011;7557;51.698;3.942;2022-12-24T01:59:26;38.17;;;8.70;;
9222;SDS011;7557;51.698;3.942;2022-12-24T02:01:55;48.37;;;9.70;;
9222;SDS011;7557;51.698;3.942;2022-12-24T02:04:24;42.73;;;8.40;;
9222;SDS011;7557;51.698;3.942;2022-12-24T02:06:55;46.23;;;8.77;;
9222;SDS011;7557;51.698;3.942;2022-12-24T02:09:23;38.03;;;8.33;;
9222;SDS011;7557;51.698;3.942;2022-12-24T02:11:51;37.03;;;9.03;;
9222;SDS011;7557;51.698;3.942;2022-12-24T02:14:18;39.80;;;8.97;;
9222;SDS011;7557;51.698;3.942;2022-12-24T02:16:51;34.67;;;8.00;;
9222;SDS011;7557;51.698;3.942;2022-12-24T02:19:38;38.07;;;7.50;;
9222;SDS011;7557;51.698;3.942;2022-12-24T02:22:31;42.00;;;7.90;;
9222;SDS011;7557;51.698;3.942;2022-12-24T02:25:10;43.73;;;7.50;;
9222;SDS011;7557;51.698;3.942;2022-12-24T02:27:56;37.20;;;7.80;;
9222;SDS011;7557;51.698;3.942;2022-12-24T02:30:33;36.27;;;7.87;;
9222;SDS011;7557;51.698;3.942;2022-12-24T02:33:11;33.53;;;7.37;;
9222;SDS011;7557;51.698;3.942;2022-12-24T02:35:45;31.63;;;6.10;;
9222;SDS011;7557;51.698;3.942;2022-12-24T02:38:19;37.20;;;7.80;;
9222;SDS011;7557;51.698;3.942;2022-12-24T02:40:52;28.30;;;7.00;;
9222;SDS011;7557;51.698;3.942;2022-12-24T02:43:24;45.13;;;7.80;;
9222;SDS011;7557;51.698;3.942;2022-12-24T02:45:57;27.83;;;6.27;;
9222;SDS011;7557;51.698;3.942;2022-12-24T02:48:27;42.90;;;7.97;;
9222;SDS011;7557;51.698;3.942;2022-12-24T02:51:01;35.17;;;6.70;;
9222;SDS011;7557;51.698;3.942;2022-12-24T02:53:30;35.40;;;7.70;;
9222;SDS011;7557;51.698;3.942;2022-12-24T02:56:14;40.23;;;8.50;;
9222;SDS011;7557;51.698;3.942;2022-12-24T02:58:59;33.27;;;7.50;;
9222;SDS011;7557;51.698;3.942;2022-12-24T03:01:41;34.70;;;6.90;;
9222;SDS011;7557;51.698;3.942;2022-12-24T03:04:19;44.47;;;8.63;;
9222;SDS011;7557;51.698;3.942;2022-12-24T03:07:05;45.23;;;7.40;;
9222;SDS011;7557;51.698;3.942;2022-12-24T03:09:43;50.90;;;8.77;;
9222;SDS011;7557;51.698;3.942;2022-12-24T03:12:24;33.00;;;6.80;;
9222;SDS011;7557;51.698;3.942;2022-12-24T03:14:56;41.53;;;7.87;;
9222;SDS011;7557;51.698;3.942;2022-12-24T03:17:26;50.60;;;9.70;;
9222;SDS011;7557;51.698;3.942;2022-12-24T03:19:54;51.03;;;10.30;;
9222;SDS011;7557;51.698;3.942;2022-12-24T03:22:21;38.23;;;7.80;;
9222;SDS011;7557;51.698;3.942;2022-12-24T03:24:50;47.73;;;10.63;;
9222;SDS011;7557;51.698;3.942;2022-12-24T03:27:18;56.70;;;9.73;;
9222;SDS011;7557;51.698;3.942;2022-12-24T03:29:46;54.47;;;10.17;;
9222;SDS011;7557;51.698;3.942;2022-12-24T03:32:13;62.63;;;10.93;;
9222;SDS011;7557;51.698;3.942;2022-12-24T03:34:42;63.10;;;11.27;;
9222;SDS011;7557;51.698;3.942;2022-12-24T03:37:09;55.20;;;10.97;;
9222;SDS011;7557;51.698;3.942;2022-12-24T03:39:37;62.63;;;12.67;;
9222;SDS011;7557;51.698;3.942;2022-12-24T03:42:04;56.90;;;10.93;;
9222;SDS011;7557;51.698;3.942;2022-12-24T03:44:32;59.97;;;11.97;;
9222;SDS011;7557;51.698;3.942;2022-12-24T03:46:59;59.40;;;10.07;;
9222;SDS011;7557;51.698;3.942;2022-12-24T03:49:27;58.83;;;10.80;;
9222;SDS011;7557;51.698;3.942;2022-12-24T03:51:56;66.17;;;11.20;;
9222;SDS011;7557;51.698;3.942;2022-12-24T03:54:23;62.57;;;11.37;;
9222;SDS011;7557;51.698;3.942;2022-12-24T03:56:50;65.70;;;12.53;;
9222;SDS011;7557;51.698;3.942;2022-12-24T03:59:18;53.70;;;11.33;;
9222;SDS011;7557;51.698;3.942;2022-12-24T04:01:45;65.30;;;11.63;;
9222;SDS011;7557;51.698;3.942;2022-12-24T04:04:13;67.83;;;12.53;;
9222;SDS011;7557;51.698;3.942;2022-12-24T04:06:40;65.63;;;12.03;;
9222;SDS011;7557;51.698;3.942;2022-12-24T04:09:09;54.53;;;11.00;;
9222;SDS011;7557;51.698;3.942;2022-12-24T04:11:37;55.57;;;10.30;;
9222;SDS011;7557;51.698;3.942;2022-12-24T04:14:04;59.73;;;12.30;;
9222;SDS011;7557;51.698;3.942;2022-12-24T04:16:32;57.70;;;12.70;;
9222;SDS011;7557;51.698;3.942;2022-12-24T04:18:59;63.27;;;12.23;;
9222;SDS011;7557;51.698;3.942;2022-12-24T04:21:27;59.03;;;11.93;;
9222;SDS011;7557;51.698;3.942;2022-12-24T04:23:54;63.80;;;11.97;;
9222;SDS011;7557;51.698;3.942;2022-12-24T04:26:24;73.60;;;12.60;;
9222;SDS011;7557;51.698;3.942;2022-12-24T04:28:51;61.67;;;11.67;;
9222;SDS011;7557;51.698;3.942;2022-12-24T04:31:19;56.87;;;11.40;;
9222;SDS011;7557;51.698;3.942;2022-12-24T04:33:49;62.63;;;13.83;;
9222;SDS011;7557;51.698;3.942;2022-12-24T04:36:17;62.73;;;12.37;;
9222;SDS011;7557;51.698;3.942;2022-12-24T04:38:46;62.07;;;11.33;;
9222;SDS011;7557;51.698;3.942;2022-12-24T04:41:15;59.17;;;11.70;;
9222;SDS011;7557;51.698;3.942;2022-12-24T04:43:45;62.73;;;12.30;;
9222;SDS011;7557;51.698;3.942;2022-12-24T04:46:14;65.13;;;13.37;;
9222;SDS011;7557;51.698;3.942;2022-12-24T04:48:43;62.00;;;11.60;;
9222;SDS011;7557;51.698;3.942;2022-12-24T04:51:11;77.97;;;11.20;;
9222;SDS011;7557;51.698;3.942;2022-12-24T04:53:40;53.70;;;10.50;;
9222;SDS011;7557;51.698;3.942;2022-12-24T04:56:08;67.60;;;11.53;;
9222;SDS011;7557;51.698;3.942;2022-12-24T04:58:37;63.97;;;11.40;;
9222;SDS011;7557;51.698;3.942;2022-12-24T05:01:07;60.33;;;11.63;;
9222;SDS011;7557;51.698;3.942;2022-12-24T05:03:38;62.20;;;11.07;;
9222;SDS011;7557;51.698;3.942;2022-12-24T05:06:07;63.83;;;11.60;;
9222;SDS011;7557;51.698;3.942;2022-12-24T05:08:37;62.87;;;10.97;;
9222;SDS011;7557;51.698;3.942;2022-12-24T05:11:06;71.10;;;11.70;;
9222;SDS011;7557;51.698;3.942;2022-12-24T05:13:34;59.20;;;12.33;;
9222;SDS011;7557;51.698;3.942;2022-12-24T05:16:01;59.80;;;12.63;;
9222;SDS011;7557;51.698;3.942;2022-12-24T05:18:32;59.50;;;11.23;;
9222;SDS011;7557;51.698;3.942;2022-12-24T05:21:00;56.73;;;11.47;;
9222;SDS011;7557;51.698;3.942;2022-12-24T05:23:27;51.17;;;9.93;;
9222;SDS011;7557;51.698;3.942;2022-12-24T05:26:13;51.07;;;11.10;;
9222;SDS011;7557;51.698;3.942;2022-12-24T05:28:47;68.53;;;11.50;;
9222;SDS011;7557;51.698;3.942;2022-12-24T05:31:15;60.43;;;11.87;;
9222;SDS011;7557;51.698;3.942;2022-12-24T05:33:44;62.77;;;10.77;;
9222;SDS011;7557;51.698;3.942;2022-12-24T05:36:12;63.27;;;10.20;;
9222;SDS011;7557;51.698;3.942;2022-12-24T05:38:40;54.90;;;9.67;;
9222;SDS011;7557;51.698;3.942;2022-12-24T05:41:07;51.60;;;10.90;;
9222;SDS011;7557;51.698;3.942;2022-12-24T05:43:35;46.27;;;10.80;;
9222;SDS011;7557;51.698;3.942;2022-12-24T05:46:04;57.90;;;11.47;;
9222;SDS011;7557;51.698;3.942;2022-12-24T05:48:33;48.87;;;11.07;;
9222;SDS011;7557;51.698;3.942;2022-12-24T05:51:04;62.43;;;11.60;;
9222;SDS011;7557;51.698;3.942;2022-12-24T05:53:32;68.80;;;11.00;;
9222;SDS011;7557;51.698;3.942;2022-12-24T05:56:04;58.47;;;10.70;;
9222;SDS011;7557;51.698;3.942;2022-12-24T05:58:32;63.93;;;10.40;;
9222;SDS011;7557;51.698;3.942;2022-12-24T06:01:00;52.30;;;10.73;;
9222;SDS011;7557;51.698;3.942;2022-12-24T06:03:27;53.40;;;11.63;;
9222;SDS011;7557;51.698;3.942;2022-12-24T06:05:58;53.97;;;11.00;;
9222;SDS011;7557;51.698;3.942;2022-12-24T06:08:29;62.70;;;12.37;;
9222;SDS011;7557;51.698;3.942;2022-12-24T06:11:00;62.70;;;11.50;;
9222;SDS011;7557;51.698;3.942;2022-12-24T06:13:29;62.30;;;11.67;;
9222;SDS011;7557;51.698;3.942;2022-12-24T06:15:56;51.93;;;10.80;;
9222;SDS011;7557;51.698;3.942;2022-12-24T06:18:25;56.47;;;9.93;;
9222;SDS011;7557;51.698;3.942;2022-12-24T06:20:54;57.80;;;10.80;;
9222;SDS011;7557;51.698;3.942;2022-12-24T06:23:23;50.20;;;10.83;;
9222;SDS011;7557;51.698;3.942;2022-12-24T06:25:54;60.63;;;10.67;;
9222;SDS011;7557;51.698;3.942;2022-12-24T06:28:23;65.20;;;12.20;;
9222;SDS011;7557;51.698;3.942;2022-12-24T06:30:51;50.47;;;11.53;;
9222;SDS011;7557;51.698;3.942;2022-12-24T06:33:18;59.27;;;11.50;;
9222;SDS011;7557;51.698;3.942;2022-12-24T06:35:46;61.10;;;11.63;;
9222;SDS011;7557;51.698;3.942;2022-12-24T06:38:14;66.80;;;12.20;;
9222;SDS011;7557;51.698;3.942;2022-12-24T06:40:42;54.00;;;11.20;;
9222;SDS011;7557;51.698;3.942;2022-12-24T06:43:13;53.97;;;11.83;;
9222;SDS011;7557;51.698;3.942;2022-12-24T06:45:43;55.57;;;10.57;;
9222;SDS011;7557;51.698;3.942;2022-12-24T06:48:11;64.57;;;11.93;;
9222;SDS011;7557;51.698;3.942;2022-12-24T06:50:39;50.53;;;11.17;;
9222;SDS011;7557;51.698;3.942;2022-12-24T06:53:06;60.27;;;11.80;;
9222;SDS011;7557;51.698;3.942;2022-12-24T06:55:34;58.37;;;9.90;;
9222;SDS011;7557;51.698;3.942;2022-12-24T06:58:01;48.40;;;11.53;;
9222;SDS011;7557;51.698;3.942;2022-12-24T07:00:30;47.33;;;10.70;;
9222;SDS011;7557;51.698;3.942;2022-12-24T07:02:58;48.03;;;9.20;;
9222;SDS011;7557;51.698;3.942;2022-12-24T07:05:26;47.80;;;9.43;;
9222;SDS011;7557;51.698;3.942;2022-12-24T07:07:54;45.83;;;9.17;;
9222;SDS011;7557;51.698;3.942;2022-12-24T07:10:21;41.87;;;9.50;;
9222;SDS011;7557;51.698;3.942;2022-12-24T07:12:49;49.43;;;8.70;;
9222;SDS011;7557;51.698;3.942;2022-12-24T07:15:16;37.93;;;8.27;;
9222;SDS011;7557;51.698;3.942;2022-12-24T07:17:45;46.10;;;8.40;;
9222;SDS011;7557;51.698;3.942;2022-12-24T07:20:13;41.47;;;9.77;;
9222;SDS011;7557;51.698;3.942;2022-12-24T07:22:41;37.13;;;8.90;;
9222;SDS011;7557;51.698;3.942;2022-12-24T07:25:09;41.33;;;9.73;;
9222;SDS011;7557;51.698;3.942;2022-12-24T07:27:37;43.10;;;7.73;;
9222;SDS011;7557;51.698;3.942;2022-12-24T07:30:05;40.00;;;9.20;;
9222;SDS011;7557;51.698;3.942;2022-12-24T07:32:33;35.83;;;8.30;;
9222;SDS011;7557;51.698;3.942;2022-12-24T07:35:02;30.97;;;7.33;;
9222;SDS011;7557;51.698;3.942;2022-12-24T07:37:30;35.93;;;8.13;;
9222;SDS011;7557;51.698;3.942;2022-12-24T07:39:57;37.50;;;8.63;;
9222;SDS011;7557;51.698;3.942;2022-12-24T07:42:25;43.23;;;8.60;;
9222;SDS011;7557;51.698;3.942;2022-12-24T07:44:52;50.83;;;9.00;;
9222;SDS011;7557;51.698;3.942;2022-12-24T07:47:20;39.87;;;9.20;;
9222;SDS011;7557;51.698;3.942;2022-12-24T07:49:47;49.63;;;9.00;;
9222;SDS011;7557;51.698;3.942;2022-12-24T07:52:16;36.80;;;9.00;;
9222;SDS011;7557;51.698;3.942;2022-12-24T07:54:43;44.83;;;8.80;;
9222;SDS011;7557;51.698;3.942;2022-12-24T07:57:11;41.03;;;8.40;;
9222;SDS011;7557;51.698;3.942;2022-12-24T07:59:38;37.17;;;9.30;;
9222;SDS011;7557;51.698;3.942;2022-12-24T08:02:07;51.50;;;10.50;;
9222;SDS011;7557;51.698;3.942;2022-12-24T08:04:35;53.07;;;9.97;;
9222;SDS011;7557;51.698;3.942;2022-12-24T08:07:03;39.17;;;9.40;;
9222;SDS011;7557;51.698;3.942;2022-12-24T08:09:32;53.07;;;9.40;;
9222;SDS011;7557;51.698;3.942;2022-12-24T08:12:01;37.20;;;7.83;;
9222;SDS011;7557;51.698;3.942;2022-12-24T08:14:29;44.47;;;9.33;;
9222;SDS011;7557;51.698;3.942;2022-12-24T08:16:56;39.63;;;9.20;;
9222;SDS011;7557;51.698;3.942;2022-12-24T08:19:24;41.03;;;9.90;;
9222;SDS011;7557;51.698;3.942;2022-12-24T08:21:51;45.10;;;9.23;;
9222;SDS011;7557;51.698;3.942;2022-12-24T08:24:19;46.97;;;9.87;;
9222;SDS011;7557;51.698;3.942;2022-12-24T08:26:48;47.63;;;9.73;;
9222;SDS011;7557;51.698;3.942;2022-12-24T08:29:15;41.90;;;9.27;;
9222;SDS011;7557;51.698;3.942;2022-12-24T08:31:42;46.30;;;9.43;;
9222;SDS011;7557;51.698;3.942;2022-12-24T08:34:10;45.47;;;8.33;;
9222;SDS011;7557;51.698;3.942;2022-12-24T08:36:37;40.90;;;8.03;;
9222;SDS011;7557;51.698;3.942;2022-12-24T08:39:05;42.13;;;9.23;;
9222;SDS011;7557;51.698;3.942;2022-12-24T08:41:33;56.10;;;8.83;;
9222;SDS011;7557;51.698;3.942;2022-12-24T08:44:03;46.17;;;9.77;;
9222;SDS011;7557;51.698;3.942;2022-12-24T08:46:30;52.10;;;9.10;;
9222;SDS011;7557;51.698;3.942;2022-12-24T08:48:57;44.43;;;9.40;;
9222;SDS011;7557;51.698;3.942;2022-12-24T08:51:25;40.83;;;8.57;;
9222;SDS011;7557;51.698;3.942;2022-12-24T08:53:52;49.33;;;9.50;;
9222;SDS011;7557;51.698;3.942;2022-12-24T08:56:20;45.17;;;8.87;;
9222;SDS011;7557;51.698;3.942;2022-12-24T08:58:47;37.97;;;9.33;;
9222;SDS011;7557;51.698;3.942;2022-12-24T09:01:17;47.33;;;9.00;;
9222;SDS011;7557;51.698;3.942;2022-12-24T09:03:45;47.73;;;10.00;;
9222;SDS011;7557;51.698;3.942;2022-12-24T09:06:13;37.93;;;9.40;;
9222;SDS011;7557;51.698;3.942;2022-12-24T09:08:41;54.47;;;9.43;;
9222;SDS011;7557;51.698;3.942;2022-12-24T09:11:10;49.67;;;9.23;;
9222;SDS011;7557;51.698;3.942;2022-12-24T09:13:38;57.57;;;10.30;;
9222;SDS011;7557;51.698;3.942;2022-12-24T09:16:07;54.03;;;10.80;;
9222;SDS011;7557;51.698;3.942;2022-12-24T09:18:36;53.40;;;9.80;;
9222;SDS011;7557;51.698;3.942;2022-12-24T09:21:05;52.03;;;8.73;;
9222;SDS011;7557;51.698;3.942;2022-12-24T09:23:36;51.77;;;11.97;;
9222;SDS011;7557;51.698;3.942;2022-12-24T09:26:05;49.43;;;10.67;;
9222;SDS011;7557;51.698;3.942;2022-12-24T09:28:33;52.43;;;10.47;;
9222;SDS011;7557;51.698;3.942;2022-12-24T09:31:02;59.70;;;11.07;;
9222;SDS011;7557;51.698;3.942;2022-12-24T09:33:32;47.63;;;9.83;;
9222;SDS011;7557;51.698;3.942;2022-12-24T09:36:02;38.63;;;9.87;;
9222;SDS011;7557;51.698;3.942;2022-12-24T09:38:31;44.07;;;8.73;;
9222;SDS011;7557;51.698;3.942;2022-12-24T09:40:59;40.37;;;9.13;;
9222;SDS011;7557;51.698;3.942;2022-12-24T09:43:28;46.80;;;9.60;;
9222;SDS011;7557;51.698;3.942;2022-12-24T09:46:02;43.07;;;9.00;;
9222;SDS011;7557;51.698;3.942;2022-12-24T09:48:36;47.03;;;9.97;;
9222;SDS011;7557;51.698;3.942;2022-12-24T09:51:08;38.63;;;8.97;;
9222;SDS011;7557;51.698;3.942;2022-12-24T09:53:38;46.50;;;9.40;;
9222;SDS011;7557;51.698;3.942;2022-12-24T09:56:10;40.80;;;9.53;;
9222;SDS011;7557;51.698;3.942;2022-12-24T09:58:42;49.40;;;9.63;;
9222;SDS011;7557;51.698;3.942;2022-12-24T10:01:13;52.47;;;9.57;;
9222;SDS011;7557;51.698;3.942;2022-12-24T10:03:43;51.17;;;9.37;;
9222;SDS011;7557;51.698;3.942;2022-12-24T10:06:15;43.93;;;9.50;;
9222;SDS011;7557;51.698;3.942;2022-12-24T10:08:47;45.30;;;11.43;;
9222;SDS011;7557;51.698;3.942;2022-12-24T10:11:29;44.60;;;9.67;;
9222;SDS011;7557;51.698;3.942;2022-12-24T10:14:08;50.77;;;10.30;;
9222;SDS011;7557;51.698;3.942;2022-12-24T10:16:47;48.87;;;10.57;;
9222;SDS011;7557;51.698;3.942;2022-12-24T10:19:20;39.97;;;9.43;;
9222;SDS011;7557;51.698;3.942;2022-12-24T10:21:56;44.10;;;9.23;;
9222;SDS011;7557;51.698;3.942;2022-12-24T10:24:36;38.67;;;8.80;;
9222;SDS011;7557;51.698;3.942;2022-12-24T10:27:10;37.40;;;8.13;;
9222;SDS011;7557;51.698;3.942;2022-12-24T10:29:41;41.30;;;9.37;;
9222;SDS011;7557;51.698;3.942;2022-12-24T10:32:14;48.80;;;9.70;;
9222;SDS011;7557;51.698;3.942;2022-12-24T10:34:48;48.23;;;9.03;;
9222;SDS011;7557;51.698;3.942;2022-12-24T10:37:21;42.07;;;9.37;;
9222;SDS011;7557;51.698;3.942;2022-12-24T10:39:50;38.90;;;8.93;;
9222;SDS011;7557;51.698;3.942;2022-12-24T10:42:18;40.00;;;8.80;;
9222;SDS011;7557;51.698;3.942;2022-12-24T10:44:49;38.57;;;7.13;;
9222;SDS011;7557;51.698;3.942;2022-12-24T10:47:21;44.63;;;8.40;;
9222;SDS011;7557;51.698;3.942;2022-12-24T10:49:52;39.83;;;9.20;;
9222;SDS011;7557;51.698;3.942;2022-12-24T10:52:26;49.73;;;10.20;;
9222;SDS011;7557;51.698;3.942;2022-12-24T10:55:08;43.87;;;10.07;;
9222;SDS011;7557;51.698;3.942;2022-12-24T10:57:37;43.23;;;8.70;;
9222;SDS011;7557;51.698;3.942;2022-12-24T11:00:07;40.47;;;7.77;;
9222;SDS011;7557;51.698;3.942;2022-12-24T11:02:45;46.30;;;8.87;;
9222;SDS011;7557;51.698;3.942;2022-12-24T11:05:26;50.63;;;9.30;;
9222;SDS011;7557;51.698;3.942;2022-12-24T11:08:00;36.87;;;8.87;;
9222;SDS011;7557;51.698;3.942;2022-12-24T11:10:28;41.07;;;9.47;;
9222;SDS011;7557;51.698;3.942;2022-12-24T11:12:56;40.73;;;8.10;;
9222;SDS011;7557;51.698;3.942;2022-12-24T11:15:25;37.60;;;7.87;;
9222;SDS011;7557;51.698;3.942;2022-12-24T11:17:56;33.37;;;8.30;;
9222;SDS011;7557;51.698;3.942;2022-12-24T11:20:28;39.57;;;9.23;;
9222;SDS011;7557;51.698;3.942;2022-12-24T11:22:57;37.90;;;7.63;;
9222;SDS011;7557;51.698;3.942;2022-12-24T11:25:28;38.63;;;8.23;;
9222;SDS011;7557;51.698;3.942;2022-12-24T11:27:57;40.70;;;8.90;;
9222;SDS011;7557;51.698;3.942;2022-12-24T11:30:37;32.57;;;7.73;;
9222;SDS011;7557;51.698;3.942;2022-12-24T11:33:14;34.50;;;7.67;;
9222;SDS011;7557;51.698;3.942;2022-12-24T11:35:44;41.43;;;8.40;;
9222;SDS011;7557;51.698;3.942;2022-12-24T11:38:19;40.90;;;7.90;;
9222;SDS011;7557;51.698;3.942;2022-12-24T11:40:50;37.93;;;8.37;;
9222;SDS011;7557;51.698;3.942;2022-12-24T11:43:25;40.77;;;8.17;;
9222;SDS011;7557;51.698;3.942;2022-12-24T11:46:16;40.53;;;8.57;;
9222;SDS011;7557;51.698;3.942;2022-12-24T11:48:46;32.37;;;8.60;;
9222;SDS011;7557;51.698;3.942;2022-12-24T11:51:18;38.57;;;7.73;;
9222;SDS011;7557;51.698;3.942;2022-12-24T11:53:55;39.60;;;8.43;;
9222;SDS011;7557;51.698;3.942;2022-12-24T11:56:32;39.97;;;8.33;;
9222;SDS011;7557;51.698;3.942;2022-12-24T11:59:06;38.00;;;7.27;;
9222;SDS011;7557;51.698;3.942;2022-12-24T12:01:43;33.33;;;7.33;;
9222;SDS011;7557;51.698;3.942;2022-12-24T12:04:17;34.43;;;8.00;;
9222;SDS011;7557;51.698;3.942;2022-12-24T12:06:47;27.03;;;6.87;;
9222;SDS011;7557;51.698;3.942;2022-12-24T12:09:21;35.67;;;8.07;;
9222;SDS011;7557;51.698;3.942;2022-12-24T12:11:53;31.07;;;6.93;;
9222;SDS011;7557;51.698;3.942;2022-12-24T12:14:26;34.27;;;7.73;;
9222;SDS011;7557;51.698;3.942;2022-12-24T12:17:00;34.70;;;6.93;;
9222;SDS011;7557;51.698;3.942;2022-12-24T12:19:36;32.03;;;7.07;;
9222;SDS011;7557;51.698;3.942;2022-12-24T12:22:09;43.27;;;9.67;;
9222;SDS011;7557;51.698;3.942;2022-12-24T12:24:49;42.47;;;8.20;;
9222;SDS011;7557;51.698;3.942;2022-12-24T12:27:20;35.13;;;7.87;;
9222;SDS011;7557;51.698;3.942;2022-12-24T12:29:55;26.90;;;6.83;;
9222;SDS011;7557;51.698;3.942;2022-12-24T12:32:27;38.30;;;7.93;;
9222;SDS011;7557;51.698;3.942;2022-12-24T12:35:04;31.70;;;7.80;;
9222;SDS011;7557;51.698;3.942;2022-12-24T12:37:42;39.50;;;8.47;;
9222;SDS011;7557;51.698;3.942;2022-12-24T12:40:15;31.07;;;7.40;;
9222;SDS011;7557;51.698;3.942;2022-12-24T12:42:45;42.23;;;9.67;;
9222;SDS011;7557;51.698;3.942;2022-12-24T12:45:36;39.60;;;8.10;;
9222;SDS011;7557;51.698;3.942;2022-12-24T12:48:12;28.70;;;6.57;;
9222;SDS011;7557;51.698;3.942;2022-12-24T12:50:51;39.37;;;8.40;;
9222;SDS011;7557;51.698;3.942;2022-12-24T12:53:27;29.73;;;6.23;;
9222;SDS011;7557;51.698;3.942;2022-12-24T12:56:08;33.73;;;7.53;;
9222;SDS011;7557;51.698;3.942;2022-12-24T12:58:44;25.50;;;6.77;;
9222;SDS011;7557;51.698;3.942;2022-12-24T13:01:17;45.40;;;9.30;;
9222;SDS011;7557;51.698;3.942;2022-12-24T13:03:52;37.20;;;7.77;;
9222;SDS011;7557;51.698;3.942;2022-12-24T13:09:55;28.27;;;6.83;;
9222;SDS011;7557;51.698;3.942;2022-12-24T13:12:38;33.93;;;7.03;;
9222;SDS011;7557;51.698;3.942;2022-12-24T13:21:14;45.87;;;8.13;;
9222;SDS011;7557;51.698;3.942;2022-12-24T13:23:43;35.63;;;7.30;;
9222;SDS011;7557;51.698;3.942;2022-12-24T13:26:12;37.40;;;8.77;;
9222;SDS011;7557;51.698;3.942;2022-12-24T13:28:42;28.13;;;8.03;;
9222;SDS011;7557;51.698;3.942;2022-12-24T13:31:25;32.23;;;7.07;;
9222;SDS011;7557;51.698;3.942;2022-12-24T13:33:55;30.13;;;7.97;;
9222;SDS011;7557;51.698;3.942;2022-12-24T13:39:33;34.27;;;6.67;;
9222;SDS011;7557;51.698;3.942;2022-12-24T13:42:48;29.67;;;6.63;;
9222;SDS011;7557;51.698;3.942;2022-12-24T13:48:31;34.77;;;7.57;;
9222;SDS011;7557;51.698;3.942;2022-12-24T13:51:00;33.23;;;7.10;;
9222;SDS011;7557;51.698;3.942;2022-12-24T13:53:44;33.40;;;7.33;;
9222;SDS011;7557;51.698;3.942;2022-12-24T13:56:19;29.07;;;6.77;;
9222;SDS011;7557;51.698;3.942;2022-12-24T13:58:51;29.50;;;7.27;;
9222;SDS011;7557;51.698;3.942;2022-12-24T14:01:34;29.73;;;6.67;;
9222;SDS011;7557;51.698;3.942;2022-12-24T14:04:06;28.20;;;6.87;;
9222;SDS011;7557;51.698;3.942;2022-12-24T14:06:36;28.83;;;6.83;;
9222;SDS011;7557;51.698;3.942;2022-12-24T14:09:06;25.40;;;6.97;;
9222;SDS011;7557;51.698;3.942;2022-12-24T14:14:40;27.70;;;7.43;;
9222;SDS011;7557;51.698;3.942;2022-12-24T14:17:10;30.57;;;6.70;;
9222;SDS011;7557;51.698;3.942;2022-12-24T14:19:42;35.97;;;8.17;;
9222;SDS011;7557;51.698;3.942;2022-12-24T14:22:17;24.57;;;6.57;;
9222;SDS011;7557;51.698;3.942;2022-12-24T14:24:50;28.47;;;6.93;;
9222;SDS011;7557;51.698;3.942;2022-12-24T14:27:23;27.87;;;6.63;;
9222;SDS011;7557;51.698;3.942;2022-12-24T14:30:03;31.57;;;6.77;;
9222;SDS011;7557;51.698;3.942;2022-12-24T14:32:34;34.90;;;8.00;;
9222;SDS011;7557;51.698;3.942;2022-12-24T14:35:08;29.47;;;7.40;;
9222;SDS011;7557;51.698;3.942;2022-12-24T14:37:41;22.13;;;6.43;;
9222;SDS011;7557;51.698;3.942;2022-12-24T14:40:13;30.30;;;6.83;;
9222;SDS011;7557;51.698;3.942;2022-12-24T14:42:45;29.03;;;6.97;;
9222;SDS011;7557;51.698;3.942;2022-12-24T14:45:23;28.73;;;6.73;;
9222;SDS011;7557;51.698;3.942;2022-12-24T14:48:00;21.50;;;6.27;;
9222;SDS011;7557;51.698;3.942;2022-12-24T14:50:47;30.83;;;6.60;;
9222;SDS011;7557;51.698;3.942;2022-12-24T14:53:26;24.23;;;7.60;;
9222;SDS011;7557;51.698;3.942;2022-12-24T14:56:01;32.20;;;8.37;;
9222;SDS011;7557;51.698;3.942;2022-12-24T14:58:38;23.43;;;7.00;;
9222;SDS011;7557;51.698;3.942;2022-12-24T15:01:17;29.13;;;7.23;;
9222;SDS011;7557;51.698;3.942;2022-12-24T15:03:58;36.40;;;8.20;;
9222;SDS011;7557;51.698;3.942;2022-12-24T15:06:28;29.60;;;7.00;;
9222;SDS011;7557;51.698;3.942;2022-12-24T15:08:58;32.40;;;7.73;;
9222;SDS011;7557;51.698;3.942;2022-12-24T15:11:26;35.77;;;7.80;;
9222;SDS011;7557;51.698;3.942;2022-12-24T15:13:54;28.27;;;8.30;;
9222;SDS011;7557;51.698;3.942;2022-12-24T15:16:24;32.33;;;8.70;;
9222;SDS011;7557;51.698;3.942;2022-12-24T15:18:55;31.80;;;8.73;;
9222;SDS011;7557;51.698;3.942;2022-12-24T15:21:27;34.13;;;9.73;;
9222;SDS011;7557;51.698;3.942;2022-12-24T15:23:58;39.33;;;9.43;;
9222;SDS011;7557;51.698;3.942;2022-12-24T15:26:26;37.40;;;10.57;;
9222;SDS011;7557;51.698;3.942;2022-12-24T15:28:55;31.20;;;8.87;;
9222;SDS011;7557;51.698;3.942;2022-12-24T15:31:24;34.57;;;9.67;;
9222;SDS011;7557;51.698;3.942;2022-12-24T15:33:53;35.60;;;10.80;;
9222;SDS011;7557;51.698;3.942;2022-12-24T15:36:24;32.57;;;10.27;;
9222;SDS011;7557;51.698;3.942;2022-12-24T15:38:55;32.50;;;11.17;;
9222;SDS011;7557;51.698;3.942;2022-12-24T15:41:25;36.60;;;11.50;;
9222;SDS011;7557;51.698;3.942;2022-12-24T15:43:58;42.63;;;13.37;;